Time;durP1;ratioP1;P1;durP2;ratioP2;P2;SDS_P1;SDS_P2;PMS_P1;PMS_P2;Temp;Humidity;BMP_temperature;BMP_pressure;BME280_temperature;BME280_humidity;BME280_pressure;Samples;Min_cycle;Max_cycle;Signal;HPM_P1;HPM_P2
2024/01/07 00:01:24;;;;;;;20.50;12.43;;;;;;;6.32;64.13;93485.41;5048805;28;20403;-85
2024/01/07 00:03:50;;;;;;;19.55;13.02;;;;;;;6.27;64.60;93480.53;5048964;28;20105;-85
2024/01/07 00:06:16;;;;;;;19.60;13.25;;;;;;;6.27;64.28;93485.97;5047667;28;20056;-86
2024/01/07 00:08:41;;;;;;;19.15;13.18;;;;;;;6.26;64.15;93489.91;5047991;28;20104;-87
2024/01/07 00:11:07;;;;;;;17.05;12.60;;;;;;;6.24;64.06;93473.97;5047658;28;20395;-85
2024/01/07 00:13:32;;;;;;;18.92;12.65;;;;;;;6.23;64.00;93477.16;5048059;28;20468;-86
2024/01/07 00:15:57;;;;;;;16.73;11.63;;;;;;;6.20;63.89;93462.44;5029574;28;20057;-86
2024/01/07 00:18:24;;;;;;;17.55;11.20;;;;;;;6.24;63.93;93468.50;5027544;28;20029;-87
2024/01/07 00:20:49;;;;;;;22.80;14.75;;;;;;;6.24;64.08;93467.75;5027470;28;20029;-87
2024/01/07 00:23:15;;;;;;;19.13;12.20;;;;;;;6.18;64.21;93462.09;5027539;28;20017;-87
2024/01/07 00:25:40;;;;;;;17.25;12.30;;;;;;;6.22;63.98;93467.44;5028036;28;20396;-86
2024/01/07 00:28:06;;;;;;;18.90;12.50;;;;;;;6.16;64.32;93453.63;5026880;28;20432;-86
2024/01/07 00:30:31;;;;;;;19.70;12.52;;;;;;;6.14;64.55;93450.56;5028262;28;20102;-87
2024/01/07 00:32:57;;;;;;;18.15;12.52;;;;;;;6.16;64.50;93450.88;5026976;28;20530;-87
2024/01/07 00:35:22;;;;;;;20.90;13.48;;;;;;;6.16;64.62;93434.50;5036845;28;20027;-85
2024/01/07 00:37:48;;;;;;;17.25;12.27;;;;;;;6.17;64.64;93422.38;5032766;28;20037;-86
2024/01/07 00:40:13;;;;;;;22.00;12.27;;;;;;;6.16;64.97;93417.38;5031777;28;20037;-86
2024/01/07 00:42:38;;;;;;;24.23;14.00;;;;;;;6.19;64.82;93409.03;5038272;28;20384;-86
2024/01/07 00:45:04;;;;;;;17.63;12.10;;;;;;;6.13;64.85;93403.41;5034934;28;20061;-87
2024/01/07 00:47:29;;;;;;;19.33;12.13;;;;;;;6.22;64.60;93407.41;5027724;28;20060;-86
2024/01/07 00:49:55;;;;;;;17.27;10.82;;;;;;;6.22;64.66;93407.41;5026390;28;20188;-87
2024/01/07 00:52:21;;;;;;;17.40;12.02;;;;;;;6.20;64.46;93396.19;5027137;28;20021;-86
2024/01/07 00:54:46;;;;;;;15.85;11.23;;;;;;;6.20;64.74;93383.31;5026832;28;20503;-86
2024/01/07 00:57:12;;;;;;;16.83;11.45;;;;;;;6.20;64.74;93388.00;5028637;28;20105;-86
2024/01/07 00:59:38;;;;;;;16.65;10.70;;;;;;;6.15;64.83;93372.97;5027565;28;20041;-86
2024/01/07 01:02:03;;;;;;;15.73;10.82;;;;;;;6.17;64.71;93377.97;5026425;28;20033;-86
2024/01/07 01:04:28;;;;;;;18.15;11.25;;;;;;;6.08;65.16;93367.78;5027553;28;20112;-87
2024/01/07 01:06:54;;;;;;;15.55;10.20;;;;;;;6.08;65.30;93371.25;5026199;28;20029;-87
2024/01/07 01:09:19;;;;;;;16.30;10.85;;;;;;;6.13;64.86;93367.94;5027264;28;20037;-86
2024/01/07 01:11:45;;;;;;;15.43;10.55;;;;;;;6.12;64.86;93368.38;5025460;28;20137;-86
2024/01/07 01:14:10;;;;;;;18.48;10.98;;;;;;;6.15;64.89;93366.75;5031642;28;20483;-86
2024/01/07 01:16:35;;;;;;;15.50;10.65;;;;;;;6.17;64.72;93362.34;5043690;28;20117;-87
2024/01/07 01:19:01;;;;;;;13.65;9.98;;;;;;;6.19;64.92;93349.03;5026469;28;20483;-87
2024/01/07 01:21:26;;;;;;;20.10;11.20;;;;;;;6.18;64.78;93344.00;5029088;28;20091;-85
2024/01/07 01:23:52;;;;;;;15.57;10.30;;;;;;;6.21;65.09;93337.69;5024809;28;20037;-85
2024/01/07 01:26:17;;;;;;;14.40;10.00;;;;;;;6.16;65.81;93330.06;5027200;28;20052;-86
2024/01/07 01:28:42;;;;;;;14.85;9.73;;;;;;;6.12;65.84;93320.03;5029117;28;20036;-86
2024/01/07 01:31:08;;;;;;;16.55;10.63;;;;;;;6.16;65.57;93317.19;5030629;28;20183;-86
2024/01/07 01:33:33;;;;;;;13.45;10.45;;;;;;;6.11;65.76;93304.88;5030588;28;20030;-86
2024/01/07 01:35:58;;;;;;;14.57;9.80;;;;;;;6.23;65.21;93300.53;5030367;28;20187;-85
2024/01/07 01:38:24;;;;;;;16.00;9.80;;;;;;;6.24;65.50;93290.38;5030880;28;20030;-86
2024/01/07 01:40:53;;;;;;;13.27;10.18;;;;;;;6.24;65.46;93282.94;5029891;28;20096;-87
2024/01/07 01:43:23;;;;;;;16.42;10.52;;;;;;;6.22;65.44;93282.66;5030775;28;20057;-87
2024/01/07 01:45:49;;;;;;;14.52;9.75;;;;;;;6.24;65.53;93279.47;5030742;28;20036;-87
2024/01/07 01:48:14;;;;;;;16.15;8.90;;;;;;;6.26;65.38;93277.06;5031990;28;20029;-87
2024/01/07 01:50:39;;;;;;;14.00;10.15;;;;;;;6.29;65.78;93268.72;5030434;28;20413;-87
2024/01/07 01:53:05;;;;;;;20.08;10.15;;;;;;;6.31;65.76;93260.09;5030053;28;20022;-87
2024/01/07 01:55:30;;;;;;;20.00;9.73;;;;;;;6.31;65.56;93247.22;5046140;28;20025;-87
2024/01/07 01:57:59;;;;;;;15.30;10.60;;;;;;;6.30;65.54;93237.47;5048627;28;20067;-87
2024/01/07 02:00:25;;;;;;;15.05;9.63;;;;;;;6.28;65.40;93250.84;5049789;28;20036;-87
2024/01/07 02:02:50;;;;;;;18.20;10.35;;;;;;;6.31;65.62;93244.50;5048190;28;20037;-85
2024/01/07 02:05:16;;;;;;;16.73;10.00;;;;;;;6.29;65.79;93249.63;5050437;28;20029;-86
2024/01/07 02:07:41;;;;;;;16.88;10.43;;;;;;;6.31;65.78;93255.41;5049791;28;20095;-86
2024/01/07 02:10:07;;;;;;;14.70;9.75;;;;;;;6.34;65.71;93257.22;5049726;28;20210;-87
2024/01/07 02:12:32;;;;;;;15.30;10.68;;;;;;;6.33;66.13;93252.97;5033968;28;20026;-86
2024/01/07 02:14:58;;;;;;;14.68;9.95;;;;;;;6.36;65.70;93248.56;5049392;28;20144;-86
2024/01/07 02:17:23;;;;;;;16.98;10.27;;;;;;;6.43;65.89;93244.81;5050066;28;20063;-88
2024/01/07 02:19:48;;;;;;;13.10;10.00;;;;;;;6.38;66.16;93232.53;5049316;28;20494;-86
2024/01/07 02:22:14;;;;;;;14.50;9.27;;;;;;;6.28;66.08;93220.06;5033613;28;20066;-86
2024/01/07 02:24:39;;;;;;;15.10;10.32;;;;;;;6.37;66.20;93222.81;5029652;28;20026;-86
2024/01/07 02:27:05;;;;;;;13.70;10.05;;;;;;;6.47;65.78;93212.66;5029719;28;20044;-85
2024/01/07 02:29:30;;;;;;;14.60;10.05;;;;;;;6.45;65.75;93188.56;5029872;28;20064;-86
2024/01/07 02:31:55;;;;;;;14.68;9.88;;;;;;;6.43;65.74;93171.88;5030660;28;20465;-86
2024/01/07 02:34:21;;;;;;;16.45;10.48;;;;;;;6.50;65.78;93162.63;5030666;28;20022;-86
2024/01/07 02:36:46;;;;;;;14.18;9.80;;;;;;;6.52;65.64;93168.38;5031012;28;20076;-86
2024/01/07 02:39:11;;;;;;;14.60;10.27;;;;;;;6.44;66.00;93167.94;5029383;28;20091;-86
2024/01/07 02:41:37;;;;;;;14.75;9.90;;;;;;;6.43;66.30;93165.66;5030800;28;20089;-86
2024/01/07 02:44:02;;;;;;;17.60;10.57;;;;;;;6.41;66.28;93157.16;5032318;28;20033;-86
2024/01/07 02:46:27;;;;;;;14.27;9.85;;;;;;;6.43;66.23;93163.69;5030723;28;20025;-85
2024/01/07 02:48:53;;;;;;;15.35;10.68;;;;;;;6.45;66.49;93166.72;5030479;28;20026;-85
2024/01/07 02:51:19;;;;;;;16.65;10.60;;;;;;;6.45;66.66;93153.06;5030589;28;20021;-85
2024/01/07 02:53:44;;;;;;;14.95;10.20;;;;;;;6.38;66.77;93164.28;5031463;28;20037;-86
2024/01/07 02:56:09;;;;;;;16.45;10.18;;;;;;;6.47;67.10;93169.00;5042293;28;20087;-85
2024/01/07 02:58:35;;;;;;;15.23;10.07;;;;;;;6.48;67.08;93179.47;5049422;28;20476;-85
2024/01/07 03:01:00;;;;;;;18.45;10.98;;;;;;;6.47;67.40;93177.19;5048118;28;21358;-86
2024/01/07 03:03:26;;;;;;;17.13;10.52;;;;;;;6.48;67.18;93167.78;5048860;28;20060;-86
2024/01/07 03:05:51;;;;;;;16.02;10.57;;;;;;;6.57;67.00;93190.41;5049389;28;20025;-88
2024/01/07 03:08:16;;;;;;;18.45;10.93;;;;;;;6.65;66.96;93196.31;5049159;28;20541;-87
2024/01/07 03:10:42;;;;;;;15.00;9.75;;;;;;;6.58;67.38;93213.75;5047051;28;20108;-86
2024/01/07 03:13:07;;;;;;;17.45;10.13;;;;;;;6.55;67.91;93209.22;5032198;28;20033;-86
2024/01/07 03:15:33;;;;;;;22.02;10.55;;;;;;;6.46;68.34;93211.91;5036572;28;20466;-85
2024/01/07 03:17:58;;;;;;;12.27;9.13;;;;;;;6.50;69.46;93215.25;5035726;28;20558;-86
2024/01/07 03:20:23;;;;;;;14.95;9.80;;;;;;;6.45;69.81;93210.41;5038051;28;20033;-86
2024/01/07 03:22:49;;;;;;;13.43;9.48;;;;;;;6.56;69.67;93218.91;5048924;28;20096;-87
2024/01/07 03:25:14;;;;;;;14.32;8.75;;;;;;;6.56;70.21;93223.63;5074215;28;20032;-86
2024/01/07 03:27:39;;;;;;;16.88;9.82;;;;;;;6.52;70.41;93231.94;5074785;28;20025;-86
2024/01/07 03:30:05;;;;;;;13.43;9.48;;;;;;;6.56;70.91;93218.91;5067398;28;20112;-86
2024/01/07 03:32:31;;;;;;;13.88;9.18;;;;;;;6.58;71.27;93216.47;5051233;28;20021;-86
2024/01/07 03:34:56;;;;;;;13.05;7.95;;;;;;;6.63;72.16;93213.16;5049630;28;20158;-85
2024/01/07 03:37:22;;;;;;;15.00;8.38;;;;;;;6.73;72.47;93210.44;5052016;28;20041;-86
2024/01/07 03:39:47;;;;;;;11.18;8.80;;;;;;;6.79;72.26;93211.34;5049182;28;20377;-87
2024/01/07 03:42:13;;;;;;;10.13;6.88;;;;;;;6.86;71.92;93208.31;5048131;28;20045;-86
2024/01/07 03:44:39;;;;;;;13.13;7.60;;;;;;;6.96;71.75;93220.78;5049439;28;20451;-87
2024/01/07 03:47:05;;;;;;;6.53;4.90;;;;;;;7.03;71.18;93215.00;5047846;28;20025;-87
2024/01/07 03:49:30;;;;;;;6.43;4.15;;;;;;;7.10;70.96;93211.22;5048501;28;20497;-85
2024/01/07 03:51:56;;;;;;;5.10;3.50;;;;;;;7.23;70.27;93200.91;5046901;28;20025;-85
2024/01/07 03:54:21;;;;;;;6.43;2.80;;;;;;;7.34;70.15;93187.53;5038503;28;20078;-85
2024/01/07 03:56:46;;;;;;;3.85;2.58;;;;;;;7.36;70.01;93181.59;5028543;28;20021;-82
2024/01/07 03:59:12;;;;;;;3.20;2.63;;;;;;;7.52;70.03;93191.44;5027585;28;20536;-83
2024/01/07 04:01:37;;;;;;;5.68;2.38;;;;;;;7.49;69.82;93175.94;5028660;28;20030;-84
2024/01/07 04:04:03;;;;;;;4.88;3.05;;;;;;;7.58;69.98;93190.34;5027906;28;20021;-85
2024/01/07 04:06:28;;;;;;;5.38;2.60;;;;;;;7.59;69.79;93180.16;5028126;28;20025;-85
2024/01/07 04:08:54;;;;;;;4.38;2.78;;;;;;;7.64;70.16;93176.81;5028014;28;20310;-85
2024/01/07 04:11:19;;;;;;;3.60;2.45;;;;;;;7.65;69.95;93175.59;5027825;28;20025;-85
2024/01/07 04:13:45;;;;;;;4.70;3.03;;;;;;;7.73;69.89;93171.31;5032220;28;20113;-84
2024/01/07 04:16:20;;;;;;;3.10;2.38;;;;;;;7.78;69.72;93169.94;5047496;28;20469;-85
2024/01/07 04:18:46;;;;;;;5.03;3.30;;;;;;;7.82;69.98;93167.78;5047978;28;20043;-85
2024/01/07 04:21:12;;;;;;;5.07;2.92;;;;;;;7.87;69.87;93153.50;5046977;28;20033;-87
2024/01/07 04:23:39;;;;;;;3.40;2.65;;;;;;;7.91;70.08;93145.84;5030485;28;20023;-86
2024/01/07 04:26:04;;;;;;;3.75;2.72;;;;;;;7.93;69.98;93144.19;5042141;28;20087;-86
2024/01/07 04:28:30;;;;;;;4.32;2.63;;;;;;;8.04;69.57;93127.25;5028608;28;20025;-87
2024/01/07 04:30:55;;;;;;;4.75;3.08;;;;;;;8.18;68.71;93112.13;5025847;28;20053;-88
2024/01/07 04:33:20;;;;;;;3.80;2.63;;;;;;;8.18;68.37;93126.56;5027597;28;20041;-88
2024/01/07 04:35:46;;;;;;;5.00;3.13;;;;;;;8.07;68.75;93134.53;5027638;28;20136;-88
2024/01/07 04:38:11;;;;;;;4.80;3.13;;;;;;;8.04;68.74;93132.75;5027226;28;20071;-88
2024/01/07 04:40:37;;;;;;;4.45;3.20;;;;;;;8.05;68.83;93125.28;5028027;28;20108;-87
2024/01/07 04:43:02;;;;;;;5.10;3.95;;;;;;;8.05;68.84;93134.25;5027510;28;20018;-88
2024/01/07 04:45:27;;;;;;;6.15;4.32;;;;;;;8.11;68.40;93131.63;5027237;28;20076;-89
2024/01/07 04:47:53;;;;;;;7.28;4.95;;;;;;;8.06;68.47;93127.53;5027160;28;20026;-89
2024/01/07 04:50:19;;;;;;;10.80;5.50;;;;;;;8.09;68.09;93143.06;5027042;28;20444;-87
2024/01/07 04:52:46;;;;;;;14.57;6.85;;;;;;;8.04;67.97;93127.25;5027360;28;20527;-87
2024/01/07 04:55:11;;;;;;;12.20;8.23;;;;;;;8.05;68.18;93131.50;5039679;28;20040;-87
2024/01/07 04:57:36;;;;;;;12.85;7.57;;;;;;;8.07;68.02;93140.00;5026420;28;20024;-87
2024/01/07 05:00:03;;;;;;;11.13;6.97;;;;;;;8.10;67.87;93136.34;5025478;28;20440;-86
2024/01/07 05:02:29;;;;;;;11.88;7.78;;;;;;;8.10;67.87;93143.81;5027036;28;20025;-87
2024/01/07 05:04:55;;;;;;;10.60;6.60;;;;;;;8.03;68.34;93149.59;5026837;28;20071;-86
2024/01/07 05:07:20;;;;;;;12.25;6.93;;;;;;;8.04;68.33;93151.13;5027238;28;20036;-86
2024/01/07 05:09:45;;;;;;;10.45;7.32;;;;;;;8.05;68.17;93139.72;5028342;28;20021;-87
2024/01/07 05:12:11;;;;;;;13.18;6.88;;;;;;;8.02;68.24;93137.91;5046501;28;20032;-87
2024/01/07 05:14:37;;;;;;;12.60;6.88;;;;;;;8.03;68.21;93131.22;5046364;28;20108;-87
2024/01/07 05:17:03;;;;;;;9.95;6.10;;;;;;;8.06;68.04;93118.59;5046264;28;20036;-86
2024/01/07 05:19:29;;;;;;;7.47;6.30;;;;;;;8.08;67.90;93116.88;5047093;28;20120;-86
2024/01/07 05:21:55;;;;;;;9.02;6.03;;;;;;;8.03;68.05;93125.75;5041786;28;20180;-88
2024/01/07 05:24:21;;;;;;;9.27;6.30;;;;;;;8.03;68.25;93114.81;5027049;28;20661;-86
2024/01/07 05:26:46;;;;;;;10.00;5.93;;;;;;;8.06;68.06;93122.06;5026701;28;20148;-87
2024/01/07 05:29:12;;;;;;;9.55;6.28;;;;;;;8.04;68.14;93119.06;5026441;28;20022;-87
2024/01/07 05:31:38;;;;;;;13.75;6.47;;;;;;;8.09;67.92;93120.41;5036182;28;20029;-87
2024/01/07 05:34:03;;;;;;;12.52;6.55;;;;;;;8.01;68.31;93117.22;5046010;28;20471;-87
2024/01/07 05:36:29;;;;;;;13.20;6.45;;;;;;;7.96;68.32;93118.63;5047195;28;20108;-86
2024/01/07 05:38:54;;;;;;;9.57;6.25;;;;;;;7.94;68.46;93134.75;5032374;28;20045;-87
2024/01/07 05:41:20;;;;;;;9.52;5.97;;;;;;;7.94;68.50;93115.59;5045990;28;20479;-86
2024/01/07 05:43:46;;;;;;;9.57;5.90;;;;;;;7.93;68.37;93118.81;5046418;28;20021;-88
2024/01/07 05:46:12;;;;;;;11.27;6.68;;;;;;;8.00;68.22;93115.72;5043794;28;20108;-87
2024/01/07 05:48:48;;;;;;;9.20;5.57;;;;;;;8.03;67.79;93114.81;5044381;28;20044;-87
2024/01/07 05:51:14;;;;;;;7.90;6.00;;;;;;;7.99;67.75;93106.75;5026568;28;20100;-87
2024/01/07 05:53:40;;;;;;;6.80;5.50;;;;;;;7.90;68.05;93104.06;5025436;28;20558;-87
2024/01/07 05:56:06;;;;;;;10.18;6.10;;;;;;;7.88;68.24;93106.50;5026060;28;20022;-87
2024/01/07 05:58:32;;;;;;;9.18;5.93;;;;;;;7.90;68.23;93104.06;5026889;28;20028;-86
2024/01/07 06:00:58;;;;;;;9.52;6.05;;;;;;;7.88;68.27;93109.25;5026515;28;20033;-86
2024/01/07 06:03:23;;;;;;;9.75;6.13;;;;;;;7.96;68.07;93104.19;5025233;28;20061;-86
2024/01/07 06:05:49;;;;;;;8.68;6.13;;;;;;;7.94;68.07;93101.91;5026510;28;20026;-89
2024/01/07 06:08:14;;;;;;;10.60;6.32;;;;;;;7.92;68.16;93098.16;5026035;28;20029;-87
2024/01/07 06:10:40;;;;;;;8.98;6.45;;;;;;;7.77;68.17;93083.63;5026834;28;20572;-87
2024/01/07 06:13:05;;;;;;;12.45;7.68;;;;;;;7.88;68.33;93100.28;5039802;28;20029;-87
2024/01/07 06:15:31;;;;;;;10.25;6.68;;;;;;;7.89;68.16;93116.22;5049773;28;20052;-87
2024/01/07 06:17:56;;;;;;;9.23;6.88;;;;;;;7.85;68.18;93106.66;5049596;28;20360;-86
2024/01/07 06:20:22;;;;;;;8.40;5.82;;;;;;;7.84;68.51;93113.38;5049639;28;20032;-86
2024/01/07 06:22:47;;;;;;;11.15;6.63;;;;;;;7.73;68.98;93105.66;5049613;28;20111;-87
2024/01/07 06:25:13;;;;;;;10.38;7.38;;;;;;;7.71;69.12;93119.03;5049891;28;20120;-87
2024/01/07 06:27:39;;;;;;;8.25;6.32;;;;;;;7.73;69.14;93108.41;5048726;28;20442;-86
2024/01/07 06:30:05;;;;;;;9.70;7.07;;;;;;;7.71;69.14;93108.09;5052034;28;20036;-86
2024/01/07 06:32:32;;;;;;;10.38;8.15;;;;;;;7.76;68.75;93120.41;5053670;28;20083;-86
2024/01/07 06:34:58;;;;;;;13.57;8.75;;;;;;;7.68;68.97;93119.97;5049653;28;20078;-86
2024/01/07 06:37:23;;;;;;;16.17;9.52;;;;;;;7.67;69.24;93132.13;5049619;28;20029;-87
2024/01/07 06:39:48;;;;;;;11.77;8.18;;;;;;;7.65;69.04;93149.00;5049975;28;20029;-88
2024/01/07 06:42:14;;;;;;;9.25;7.13;;;;;;;7.58;69.09;93119.25;5047853;28;20426;-88
2024/01/07 06:44:39;;;;;;;12.40;8.30;;;;;;;7.60;69.28;93152.34;5052057;28;20465;-88
2024/01/07 06:47:05;;;;;;;12.32;7.53;;;;;;;7.50;69.76;93147.38;5050092;28;20021;-88
2024/01/07 06:49:30;;;;;;;10.75;7.45;;;;;;;7.43;70.30;93132.06;5048141;28;20400;-88
2024/01/07 06:51:55;;;;;;;12.07;8.50;;;;;;;7.36;70.85;93126.91;5044851;28;20026;-88
2024/01/07 06:54:21;;;;;;;14.98;9.38;;;;;;;7.38;71.29;93144.34;5036746;28;20108;-87
2024/01/07 06:56:47;;;;;;;11.82;9.05;;;;;;;7.29;71.50;93124.50;5049132;28;20071;-87
2024/01/07 06:59:12;;;;;;;12.35;8.60;;;;;;;7.26;71.90;93148.03;5036293;28;20026;-87
2024/01/07 07:01:38;;;;;;;14.82;8.77;;;;;;;7.28;72.16;93144.84;5031298;28;20135;-88
2024/01/07 07:04:04;;;;;;;13.32;9.63;;;;;;;7.30;72.35;93140.44;5031692;28;20038;-89
2024/01/07 07:06:29;;;;;;;12.77;9.23;;;;;;;7.25;72.58;93145.78;5030069;28;20017;-87
2024/01/07 07:08:55;;;;;;;11.60;8.50;;;;;;;7.30;72.56;93159.56;5047056;28;20037;-88
2024/01/07 07:11:20;;;;;;;12.75;9.32;;;;;;;7.38;72.33;93151.81;5050662;28;20033;-90
2024/01/07 07:13:45;;;;;;;11.88;8.93;;;;;;;7.38;72.40;93149.06;5050175;28;20025;-88
2024/01/07 07:16:11;;;;;;;15.63;8.93;;;;;;;7.41;72.31;93148.91;5054457;28;20052;-89
2024/01/07 07:18:37;;;;;;;14.30;9.52;;;;;;;7.52;72.00;93150.41;5048392;28;20026;-89
2024/01/07 07:21:02;;;;;;;13.27;9.70;;;;;;;7.54;72.17;93132.31;5048890;28;20036;-89
2024/01/07 07:23:28;;;;;;;16.02;9.98;;;;;;;7.58;71.63;93127.47;5039075;28;20035;-91
2024/01/07 07:25:53;;;;;;;14.13;9.80;;;;;;;7.73;71.34;93144.72;5028978;28;20049;-88
2024/01/07 07:28:19;;;;;;;14.10;9.35;;;;;;;7.79;70.81;93133.91;5029092;28;20504;-90
2024/01/07 07:30:44;;;;;;;16.08;10.05;;;;;;;7.73;70.70;93141.97;5028683;28;20053;-89
2024/01/07 07:33:09;;;;;;;13.90;8.68;;;;;;;7.72;70.87;93143.19;5028937;28;20053;-90
2024/01/07 07:35:35;;;;;;;14.43;9.25;;;;;;;7.78;70.85;93151.53;5028897;28;20100;-90
2024/01/07 07:38:00;;;;;;;15.82;10.07;;;;;;;7.97;70.27;93152.22;5041420;28;20035;-89
2024/01/07 07:40:26;;;;;;;13.48;9.63;;;;;;;8.09;69.80;93150.50;5048508;28;20087;-89
2024/01/07 07:42:51;;;;;;;14.45;9.57;;;;;;;8.06;69.74;93137.75;5048833;28;20295;-89
2024/01/07 07:45:16;;;;;;;11.73;8.93;;;;;;;8.10;69.70;93133.63;5048136;28;20404;-89
2024/01/07 07:47:44;;;;;;;13.27;9.30;;;;;;;8.15;69.72;93124.78;5035493;28;20033;-86
2024/01/07 07:50:10;;;;;;;14.15;9.80;;;;;;;8.33;69.49;93134.84;5048292;28;20048;-84
2024/01/07 07:52:36;;;;;;;13.80;9.52;;;;;;;8.51;68.98;93142.97;5038637;28;20441;-81
2024/01/07 07:55:01;;;;;;;12.52;9.07;;;;;;;8.73;68.36;93137.19;5028048;28;20017;-87
2024/01/07 07:57:26;;;;;;;16.40;10.60;;;;;;;8.95;67.72;93136.13;5042088;28;20029;-86
2024/01/07 07:59:53;;;;;;;17.10;11.10;;;;;;;9.19;67.32;93133.31;5028867;28;20379;-79
2024/01/07 08:02:18;;;;;;;15.50;10.68;;;;;;;9.49;66.36;93128.59;5034772;28;20013;-88
2024/01/07 08:04:43;;;;;;;15.93;10.40;;;;;;;9.89;65.53;93119.75;5050313;28;20089;-87
2024/01/07 08:07:09;;;;;;;17.15;11.48;;;;;;;10.13;64.20;93125.09;5048458;28;20029;-91
2024/01/07 08:09:37;;;;;;;18.17;11.45;;;;;;;10.19;63.30;93125.94;5048380;28;20151;-89
2024/01/07 08:12:06;;;;;;;14.35;11.18;;;;;;;10.22;63.19;93116.00;5049056;28;20052;-90
2024/01/07 08:14:32;;;;;;;18.35;12.80;;;;;;;10.27;63.05;93124.34;5037058;28;20021;-89
2024/01/07 08:16:58;;;;;;;22.20;15.02;;;;;;;10.33;62.93;93127.16;5029024;28;20132;-88
2024/01/07 08:19:24;;;;;;;24.10;16.67;;;;;;;10.29;63.20;93121.88;5028086;28;20033;-90
2024/01/07 08:21:51;;;;;;;23.88;16.98;;;;;;;10.28;63.12;93119.59;5028363;28;20049;-88
2024/01/07 08:24:16;;;;;;;17.98;12.82;;;;;;;10.26;62.20;93111.81;5028232;28;20029;-88
2024/01/07 08:26:41;;;;;;;18.15;13.18;;;;;;;10.25;62.22;93118.56;5028389;28;20127;-89
2024/01/07 08:29:07;;;;;;;20.67;13.75;;;;;;;10.18;62.62;93126.41;5028920;28;20029;-88
2024/01/07 08:31:32;;;;;;;16.50;12.88;;;;;;;10.19;62.59;93111.44;5030296;28;20437;-90
2024/01/07 08:33:58;;;;;;;15.68;11.57;;;;;;;10.15;62.74;93106.16;5050843;28;20039;-89
2024/01/07 08:36:23;;;;;;;15.93;11.30;;;;;;;10.23;62.89;93114.75;5050614;28;20041;-87
2024/01/07 08:38:49;;;;;;;13.90;9.57;;;;;;;10.26;62.78;93117.31;5066062;28;20027;-88
2024/01/07 08:41:17;;;;;;;13.70;8.80;;;;;;;10.27;62.36;93112.59;5066340;28;20025;-88
2024/01/07 08:43:44;;;;;;;12.68;8.80;;;;;;;10.28;62.49;93114.88;5065500;28;20063;-85
2024/01/07 08:46:10;;;;;;;13.45;10.13;;;;;;;10.30;62.17;93123.38;5064647;28;20017;-87
2024/01/07 08:48:35;;;;;;;13.07;10.07;;;;;;;10.31;62.21;93124.13;5051887;28;20495;-88
2024/01/07 08:51:01;;;;;;;12.57;9.38;;;;;;;10.34;62.30;93123.19;5051852;28;20097;-87
2024/01/07 08:53:26;;;;;;;11.48;8.88;;;;;;;10.23;63.06;93114.75;5056302;28;20025;-87
2024/01/07 08:55:51;;;;;;;15.60;10.32;;;;;;;10.29;63.25;93116.38;5048825;28;20064;-88
2024/01/07 08:58:17;;;;;;;16.27;11.57;;;;;;;10.42;62.78;93109.78;5048096;28;20023;-87
2024/01/07 09:00:43;;;;;;;15.43;11.55;;;;;;;10.48;62.90;93107.88;5048666;28;20022;-89
2024/01/07 09:03:09;;;;;;;16.58;12.23;;;;;;;10.60;62.88;93110.25;5047097;28;20675;-80
2024/01/07 09:05:34;;;;;;;17.50;12.40;;;;;;;10.80;62.58;93112.25;5053519;28;20016;-85
2024/01/07 09:08:00;;;;;;;16.63;11.35;;;;;;;11.01;61.84;93110.25;5056826;28;20427;-87
2024/01/07 09:10:26;;;;;;;13.90;10.55;;;;;;;11.22;61.16;93113.72;5034724;28;20120;-79
2024/01/07 09:12:53;;;;;;;13.35;10.07;;;;;;;11.37;60.81;93108.13;5059283;28;20453;-83
2024/01/07 09:15:19;;;;;;;13.38;9.30;;;;;;;11.72;59.65;93116.19;5045045;28;20093;-81
2024/01/07 09:17:45;;;;;;;11.85;8.73;;;;;;;11.96;58.85;93122.16;5043079;28;20448;-81
2024/01/07 09:20:11;;;;;;;12.43;9.45;;;;;;;12.31;58.19;93128.63;5027097;28;20025;-79
2024/01/07 09:22:36;;;;;;;12.15;9.38;;;;;;;12.74;57.16;93126.63;5023401;28;20036;-80
2024/01/07 09:25:07;;;;;;;11.75;8.95;;;;;;;13.16;55.54;93136.06;5015623;28;20033;-81
2024/01/07 09:27:33;;;;;;;10.85;8.52;;;;;;;13.69;54.26;93118.63;5032181;28;20448;-78
2024/01/07 09:29:59;;;;;;;10.65;8.07;;;;;;;13.77;53.77;93124.44;5002209;28;20101;-79
2024/01/07 09:32:24;;;;;;;11.70;8.60;;;;;;;14.17;52.49;93114.88;5022569;28;20040;-79
2024/01/07 09:34:50;;;;;;;8.68;7.75;;;;;;;14.69;51.09;93121.84;5025245;28;20163;-80
2024/01/07 09:37:16;;;;;;;9.98;7.13;;;;;;;15.04;49.67;93115.69;5039512;28;20025;-80
2024/01/07 09:39:42;;;;;;;9.52;7.00;;;;;;;15.72;48.19;93118.88;5044732;28;20403;-80
2024/01/07 09:42:16;;;;;;;12.27;8.50;;;;;;;16.37;46.90;93118.84;5045226;28;20025;-80
2024/01/07 09:44:42;;;;;;;11.05;7.70;;;;;;;17.25;44.38;93103.78;5046626;28;20033;-83
2024/01/07 09:47:11;;;;;;;11.73;7.38;;;;;;;18.38;41.87;93105.69;5045130;28;20032;-79
2024/01/07 09:49:37;;;;;;;10.88;7.25;;;;;;;19.71;39.62;93121.09;5031979;28;20037;-78
2024/01/07 09:52:04;;;;;;;7.90;6.70;;;;;;;20.10;37.48;93114.66;5028961;28;20545;-80
2024/01/07 09:54:30;;;;;;;6.60;5.25;;;;;;;19.50;37.47;93109.88;5028630;28;20104;-79
2024/01/07 09:57:00;;;;;;;6.95;4.55;;;;;;;19.53;37.13;93108.03;5029462;28;20056;-79
2024/01/07 09:59:28;;;;;;;7.57;5.25;;;;;;;18.98;38.58;93105.09;5037971;28;20514;-85
2024/01/07 10:01:53;;;;;;;7.75;5.40;;;;;;;18.77;39.76;93102.97;5035757;28;20028;-79
2024/01/07 10:04:19;;;;;;;7.35;6.07;;;;;;;20.05;36.97;93114.78;5035723;28;20432;-80
2024/01/07 10:06:44;;;;;;;8.93;5.10;;;;;;;21.57;33.53;93095.59;5031250;28;20029;-82
2024/01/07 10:09:11;;;;;;;8.30;4.63;;;;;;;22.77;31.47;93104.03;5030892;28;20029;-78
2024/01/07 10:11:37;;;;;;;7.03;4.18;;;;;;;23.68;30.21;93079.94;5030259;28;20474;-77
2024/01/07 10:14:02;;;;;;;5.70;3.20;;;;;;;24.61;27.75;93080.91;5030477;28;20491;-79
2024/01/07 10:16:28;;;;;;;3.05;1.67;;;;;;;24.97;25.84;93071.97;5040525;28;20049;-81
2024/01/07 10:18:53;;;;;;;4.53;1.15;;;;;;;25.21;25.21;93075.31;5046155;28;20496;-82
2024/01/07 10:21:18;;;;;;;2.50;1.10;;;;;;;24.67;25.44;93067.38;5031361;28;20112;-79
2024/01/07 10:23:44;;;;;;;2.35;1.00;;;;;;;24.14;25.67;93098.59;5029523;28;20025;-81
2024/01/07 10:26:09;;;;;;;3.67;0.65;;;;;;;22.00;28.17;93055.63;5028537;28;20152;-82
2024/01/07 10:28:34;;;;;;;2.83;0.85;;;;;;;21.88;29.24;93051.69;5029574;28;20057;-83
2024/01/07 10:31:00;;;;;;;7.03;1.20;;;;;;;22.48;28.13;93050.28;5029796;28;20041;-88
2024/01/07 10:33:30;;;;;;;2.65;1.13;;;;;;;22.05;28.88;93053.97;5029413;28;20112;-83
2024/01/07 10:35:59;;;;;;;3.38;1.08;;;;;;;21.31;29.57;93051.88;5033978;28;20112;-85
2024/01/07 10:38:24;;;;;;;2.58;0.73;;;;;;;20.39;30.62;93045.72;5029749;28;20048;-83
2024/01/07 10:40:52;;;;;;;2.25;1.10;;;;;;;19.43;32.15;93040.13;5029601;28;20453;-80
2024/01/07 10:43:17;;;;;;;2.35;0.90;;;;;;;19.82;31.92;93031.66;5029500;28;20026;-80
2024/01/07 10:45:50;;;;;;;2.78;0.80;;;;;;;19.55;32.62;93019.81;5031665;28;20498;-81
2024/01/07 10:48:18;;;;;;;3.38;1.15;;;;;;;19.71;31.88;93033.94;5048987;28;20025;-84
2024/01/07 10:50:45;;;;;;;1.27;0.60;;;;;;;18.86;32.89;93028.66;5048156;28;20033;-86
2024/01/07 10:53:14;;;;;;;2.08;0.75;;;;;;;18.57;33.81;93011.72;5049171;28;20029;-84
2024/01/07 10:55:41;;;;;;;2.08;0.55;;;;;;;19.22;32.93;93026.91;5046618;28;20032;-85
2024/01/07 10:58:07;;;;;;;2.20;0.82;;;;;;;19.73;32.83;93026.56;5046905;28;20033;-85
2024/01/07 11:00:33;;;;;;;3.42;1.00;;;;;;;20.09;31.63;93018.31;5047482;28;20466;-82
2024/01/07 11:03:20;;;;;;;1.33;0.63;;;;;;;20.37;31.13;93020.41;5047528;28;20017;-83
2024/01/07 11:05:54;;;;;;;3.80;0.60;;;;;;;20.04;31.42;93018.47;5046970;28;20032;-83
2024/01/07 11:08:26;;;;;;;4.88;2.53;;;;;;;19.99;31.47;93030.50;5026496;28;20087;-83
2024/01/07 11:11:04;;;;;;;6.90;2.42;;;;;;;19.81;31.84;93026.63;5027292;28;20613;-82
2024/01/07 11:13:38;;;;;;;2.60;0.90;;;;;;;20.07;31.29;93032.06;5037714;28;20521;-82
2024/01/07 11:16:09;;;;;;;;;;;;;;;19.88;31.94;93017.56;5047393;28;20044;-78
2024/01/07 11:18:39;;;;;;;2.30;1.08;;;;;;;21.83;29.00;93035.81;5046641;28;19940;-82
2024/01/07 11:21:06;;;;;;;3.80;0.70;;;;;;;22.74;27.04;93023.94;5046030;28;20059;-82
2024/01/07 11:23:39;;;;;;;1.50;0.80;;;;;;;23.24;26.19;93035.41;5045271;28;20027;-79
2024/01/07 11:26:06;;;;;;;1.55;0.90;;;;;;;24.61;24.98;93033.16;5036780;28;20033;-79